sensor_id;sensor_type;location;lat;lon;timestamp;temperature;humidity
31799;DHT22;18374;51.136;3.502;2023-05-14T00:00:39;11.40;99.90
31799;DHT22;18374;51.136;3.502;2023-05-14T00:03:07;11.30;99.90
31799;DHT22;18374;51.136;3.502;2023-05-14T00:05:35;11.30;99.90
31799;DHT22;18374;51.136;3.502;2023-05-14T00:08:03;11.30;99.90
31799;DHT22;18374;51.136;3.502;2023-05-14T00:10:31;11.30;99.90
31799;DHT22;18374;51.136;3.502;2023-05-14T00:12:58;11.30;99.90
31799;DHT22;18374;51.136;3.502;2023-05-14T00:15:26;11.40;99.90
31799;DHT22;18374;51.136;3.502;2023-05-14T00:17:54;11.40;99.90
31799;DHT22;18374;51.136;3.502;2023-05-14T00:20:21;11.40;99.90
31799;DHT22;18374;51.136;3.502;2023-05-14T00:22:50;11.40;99.90
31799;DHT22;18374;51.136;3.502;2023-05-14T00:25:17;11.40;99.90
31799;DHT22;18374;51.136;3.502;2023-05-14T00:27:45;11.30;99.90
31799;DHT22;18374;51.136;3.502;2023-05-14T00:30:13;11.30;99.90
31799;DHT22;18374;51.136;3.502;2023-05-14T00:32:41;11.30;99.90
31799;DHT22;18374;51.136;3.502;2023-05-14T00:35:09;11.40;99.90
31799;DHT22;18374;51.136;3.502;2023-05-14T00:37:37;11.40;99.90
31799;DHT22;18374;51.136;3.502;2023-05-14T00:40:06;11.40;99.90
31799;DHT22;18374;51.136;3.502;2023-05-14T00:42:35;11.30;99.90
31799;DHT22;18374;51.136;3.502;2023-05-14T00:45:02;11.40;99.90
31799;DHT22;18374;51.136;3.502;2023-05-14T00:47:31;11.30;99.90
31799;DHT22;18374;51.136;3.502;2023-05-14T00:50:02;11.30;99.90
31799;DHT22;18374;51.136;3.502;2023-05-14T00:52:30;11.30;99.90
31799;DHT22;18374;51.136;3.502;2023-05-14T00:55:01;11.30;99.90
31799;DHT22;18374;51.136;3.502;2023-05-14T00:57:31;11.30;99.90
31799;DHT22;18374;51.136;3.502;2023-05-14T01:00:00;11.30;99.90
31799;DHT22;18374;51.136;3.502;2023-05-14T01:02:28;11.30;99.90
31799;DHT22;18374;51.136;3.502;2023-05-14T01:04:57;11.30;99.90
31799;DHT22;18374;51.136;3.502;2023-05-14T01:08:00;11.30;99.90
31799;DHT22;18374;51.136;3.502;2023-05-14T01:10:56;11.30;99.90
31799;DHT22;18374;51.136;3.502;2023-05-14T01:14:02;11.30;99.90
31799;DHT22;18374;51.136;3.502;2023-05-14T01:16:32;11.30;99.90
31799;DHT22;18374;51.136;3.502;2023-05-14T01:19:01;11.30;99.90
31799;DHT22;18374;51.136;3.502;2023-05-14T01:21:37;11.30;99.90
31799;DHT22;18374;51.136;3.502;2023-05-14T01:24:07;11.30;99.90
31799;DHT22;18374;51.136;3.502;2023-05-14T01:26:35;11.30;99.90
31799;DHT22;18374;51.136;3.502;2023-05-14T01:29:18;11.30;99.90
31799;DHT22;18374;51.136;3.502;2023-05-14T01:31:50;11.30;99.90
31799;DHT22;18374;51.136;3.502;2023-05-14T01:34:21;11.30;99.90
31799;DHT22;18374;51.136;3.502;2023-05-14T01:36:51;11.30;99.90
31799;DHT22;18374;51.136;3.502;2023-05-14T01:39:20;11.30;99.90
31799;DHT22;18374;51.136;3.502;2023-05-14T01:41:50;11.30;99.90
31799;DHT22;18374;51.136;3.502;2023-05-14T01:44:20;11.30;99.90
31799;DHT22;18374;51.136;3.502;2023-05-14T01:46:48;11.30;99.90
31799;DHT22;18374;51.136;3.502;2023-05-14T01:49:16;11.30;99.90
31799;DHT22;18374;51.136;3.502;2023-05-14T01:51:45;11.30;99.90
31799;DHT22;18374;51.136;3.502;2023-05-14T01:54:13;11.20;99.90
31799;DHT22;18374;51.136;3.502;2023-05-14T01:56:40;11.20;99.90
31799;DHT22;18374;51.136;3.502;2023-05-14T01:59:08;11.20;99.90
31799;DHT22;18374;51.136;3.502;2023-05-14T02:01:36;11.20;99.90
31799;DHT22;18374;51.136;3.502;2023-05-14T02:04:04;11.20;99.90
31799;DHT22;18374;51.136;3.502;2023-05-14T02:06:32;11.10;99.90
31799;DHT22;18374;51.136;3.502;2023-05-14T02:08:59;11.20;99.90
31799;DHT22;18374;51.136;3.502;2023-05-14T02:11:28;11.10;99.90
31799;DHT22;18374;51.136;3.502;2023-05-14T02:13:56;11.10;99.90
31799;DHT22;18374;51.136;3.502;2023-05-14T02:16:24;11.10;99.90
31799;DHT22;18374;51.136;3.502;2023-05-14T02:18:52;11.10;99.90
31799;DHT22;18374;51.136;3.502;2023-05-14T02:21:19;11.10;99.90
31799;DHT22;18374;51.136;3.502;2023-05-14T02:23:47;11.10;99.90
31799;DHT22;18374;51.136;3.502;2023-05-14T02:26:16;11.10;99.90
31799;DHT22;18374;51.136;3.502;2023-05-14T02:28:44;11.10;99.90
31799;DHT22;18374;51.136;3.502;2023-05-14T02:31:12;11.10;99.90
31799;DHT22;18374;51.136;3.502;2023-05-14T02:33:41;11.10;99.90
31799;DHT22;18374;51.136;3.502;2023-05-14T02:36:09;11.10;99.90
31799;DHT22;18374;51.136;3.502;2023-05-14T02:38:37;11.00;99.90
31799;DHT22;18374;51.136;3.502;2023-05-14T02:41:05;11.00;99.90
31799;DHT22;18374;51.136;3.502;2023-05-14T02:43:33;11.00;99.90
31799;DHT22;18374;51.136;3.502;2023-05-14T02:46:01;11.00;99.90
31799;DHT22;18374;51.136;3.502;2023-05-14T02:48:28;10.90;99.90
31799;DHT22;18374;51.136;3.502;2023-05-14T02:50:56;10.90;99.90
31799;DHT22;18374;51.136;3.502;2023-05-14T02:53:24;10.90;99.90
31799;DHT22;18374;51.136;3.502;2023-05-14T02:55:51;10.90;99.90
31799;DHT22;18374;51.136;3.502;2023-05-14T02:58:19;10.90;99.90
31799;DHT22;18374;51.136;3.502;2023-05-14T03:00:55;10.90;99.90
31799;DHT22;18374;51.136;3.502;2023-05-14T03:03:23;10.90;99.90
31799;DHT22;18374;51.136;3.502;2023-05-14T03:05:52;10.90;99.90
31799;DHT22;18374;51.136;3.502;2023-05-14T03:08:19;10.90;99.90
31799;DHT22;18374;51.136;3.502;2023-05-14T03:10:47;10.90;99.90
31799;DHT22;18374;51.136;3.502;2023-05-14T03:13:15;10.80;99.90
31799;DHT22;18374;51.136;3.502;2023-05-14T03:15:44;10.90;99.90
31799;DHT22;18374;51.136;3.502;2023-05-14T03:18:13;10.90;99.90
31799;DHT22;18374;51.136;3.502;2023-05-14T03:20:41;10.90;99.90
31799;DHT22;18374;51.136;3.502;2023-05-14T03:23:09;10.90;99.90
31799;DHT22;18374;51.136;3.502;2023-05-14T03:25:36;10.80;99.90
31799;DHT22;18374;51.136;3.502;2023-05-14T03:28:04;10.90;99.90
31799;DHT22;18374;51.136;3.502;2023-05-14T03:30:32;10.90;99.90
31799;DHT22;18374;51.136;3.502;2023-05-14T03:33:00;10.90;99.90
31799;DHT22;18374;51.136;3.502;2023-05-14T03:35:28;10.90;99.90
31799;DHT22;18374;51.136;3.502;2023-05-14T03:37:56;10.90;99.90
31799;DHT22;18374;51.136;3.502;2023-05-14T03:40:26;11.00;99.90
31799;DHT22;18374;51.136;3.502;2023-05-14T03:42:53;10.90;99.90
31799;DHT22;18374;51.136;3.502;2023-05-14T03:45:23;10.90;99.90
31799;DHT22;18374;51.136;3.502;2023-05-14T03:47:50;10.90;99.90
31799;DHT22;18374;51.136;3.502;2023-05-14T03:50:18;10.90;99.90
31799;DHT22;18374;51.136;3.502;2023-05-14T03:52:46;10.90;99.90
31799;DHT22;18374;51.136;3.502;2023-05-14T03:55:14;11.00;99.90
31799;DHT22;18374;51.136;3.502;2023-05-14T03:57:42;10.90;99.90
31799;DHT22;18374;51.136;3.502;2023-05-14T04:00:10;10.90;99.90
31799;DHT22;18374;51.136;3.502;2023-05-14T04:02:44;10.90;99.90
31799;DHT22;18374;51.136;3.502;2023-05-14T04:05:12;10.90;99.90
31799;DHT22;18374;51.136;3.502;2023-05-14T04:07:40;11.00;99.90
31799;DHT22;18374;51.136;3.502;2023-05-14T04:10:08;11.00;99.90
31799;DHT22;18374;51.136;3.502;2023-05-14T04:12:36;10.90;99.90
31799;DHT22;18374;51.136;3.502;2023-05-14T04:15:05;10.90;99.90
31799;DHT22;18374;51.136;3.502;2023-05-14T04:17:34;10.90;99.90
31799;DHT22;18374;51.136;3.502;2023-05-14T04:20:02;10.90;99.90
31799;DHT22;18374;51.136;3.502;2023-05-14T04:22:30;10.90;99.90
31799;DHT22;18374;51.136;3.502;2023-05-14T04:24:58;10.90;99.90
31799;DHT22;18374;51.136;3.502;2023-05-14T04:27:27;10.90;99.90
31799;DHT22;18374;51.136;3.502;2023-05-14T04:29:55;10.90;99.90
31799;DHT22;18374;51.136;3.502;2023-05-14T04:32:23;10.90;99.90
31799;DHT22;18374;51.136;3.502;2023-05-14T04:34:50;11.00;99.90
31799;DHT22;18374;51.136;3.502;2023-05-14T04:37:18;11.00;99.90
31799;DHT22;18374;51.136;3.502;2023-05-14T04:39:46;10.90;99.90
31799;DHT22;18374;51.136;3.502;2023-05-14T04:42:14;11.00;99.90
31799;DHT22;18374;51.136;3.502;2023-05-14T04:44:41;11.00;99.90
31799;DHT22;18374;51.136;3.502;2023-05-14T04:47:09;11.00;99.90
31799;DHT22;18374;51.136;3.502;2023-05-14T04:49:37;11.00;99.90
31799;DHT22;18374;51.136;3.502;2023-05-14T04:52:05;11.10;99.90
31799;DHT22;18374;51.136;3.502;2023-05-14T04:54:33;11.10;99.90
31799;DHT22;18374;51.136;3.502;2023-05-14T04:57:01;11.10;99.90
31799;DHT22;18374;51.136;3.502;2023-05-14T04:59:30;11.10;99.90
31799;DHT22;18374;51.136;3.502;2023-05-14T05:01:57;11.10;99.90
31799;DHT22;18374;51.136;3.502;2023-05-14T05:04:25;11.20;99.90
31799;DHT22;18374;51.136;3.502;2023-05-14T05:06:54;11.20;99.90
31799;DHT22;18374;51.136;3.502;2023-05-14T05:09:21;11.20;99.90
31799;DHT22;18374;51.136;3.502;2023-05-14T05:11:49;11.20;99.90
31799;DHT22;18374;51.136;3.502;2023-05-14T05:14:17;11.30;99.90
31799;DHT22;18374;51.136;3.502;2023-05-14T05:16:44;11.30;99.90
31799;DHT22;18374;51.136;3.502;2023-05-14T05:19:12;11.30;99.90
31799;DHT22;18374;51.136;3.502;2023-05-14T05:21:40;11.30;99.90
31799;DHT22;18374;51.136;3.502;2023-05-14T05:24:08;11.30;99.90
31799;DHT22;18374;51.136;3.502;2023-05-14T05:26:35;11.20;99.90
31799;DHT22;18374;51.136;3.502;2023-05-14T05:29:04;11.20;99.90
31799;DHT22;18374;51.136;3.502;2023-05-14T05:31:32;11.20;99.90
31799;DHT22;18374;51.136;3.502;2023-05-14T05:34:00;11.20;99.90
31799;DHT22;18374;51.136;3.502;2023-05-14T05:36:28;11.20;99.90
31799;DHT22;18374;51.136;3.502;2023-05-14T05:38:55;11.20;99.90
31799;DHT22;18374;51.136;3.502;2023-05-14T05:41:23;11.20;99.90
31799;DHT22;18374;51.136;3.502;2023-05-14T05:43:51;11.10;99.90
31799;DHT22;18374;51.136;3.502;2023-05-14T05:46:18;11.20;99.90
31799;DHT22;18374;51.136;3.502;2023-05-14T05:48:46;11.30;99.90
31799;DHT22;18374;51.136;3.502;2023-05-14T05:51:14;11.30;99.90
31799;DHT22;18374;51.136;3.502;2023-05-14T05:53:42;11.20;99.90
31799;DHT22;18374;51.136;3.502;2023-05-14T05:56:09;11.20;99.90
31799;DHT22;18374;51.136;3.502;2023-05-14T05:58:37;11.10;99.90
31799;DHT22;18374;51.136;3.502;2023-05-14T06:01:05;11.10;99.90
31799;DHT22;18374;51.136;3.502;2023-05-14T06:03:33;11.20;99.90
31799;DHT22;18374;51.136;3.502;2023-05-14T06:06:00;11.20;99.90
31799;DHT22;18374;51.136;3.502;2023-05-14T06:08:28;11.10;99.90
31799;DHT22;18374;51.136;3.502;2023-05-14T06:10:56;11.10;99.90
31799;DHT22;18374;51.136;3.502;2023-05-14T06:13:23;11.10;99.90
31799;DHT22;18374;51.136;3.502;2023-05-14T06:15:51;11.00;99.90
31799;DHT22;18374;51.136;3.502;2023-05-14T06:18:19;11.10;99.90
31799;DHT22;18374;51.136;3.502;2023-05-14T06:20:47;11.10;99.90
31799;DHT22;18374;51.136;3.502;2023-05-14T06:23:15;11.10;99.90
31799;DHT22;18374;51.136;3.502;2023-05-14T06:25:42;11.10;99.90
31799;DHT22;18374;51.136;3.502;2023-05-14T06:28:10;11.10;99.90
31799;DHT22;18374;51.136;3.502;2023-05-14T06:30:38;11.10;99.90
31799;DHT22;18374;51.136;3.502;2023-05-14T06:33:06;11.00;99.90
31799;DHT22;18374;51.136;3.502;2023-05-14T06:35:33;11.00;99.90
31799;DHT22;18374;51.136;3.502;2023-05-14T06:38:01;11.00;99.90
31799;DHT22;18374;51.136;3.502;2023-05-14T06:40:29;11.00;99.90
31799;DHT22;18374;51.136;3.502;2023-05-14T06:42:57;11.00;99.90
31799;DHT22;18374;51.136;3.502;2023-05-14T06:45:25;11.10;99.90
31799;DHT22;18374;51.136;3.502;2023-05-14T06:47:52;11.00;99.90
31799;DHT22;18374;51.136;3.502;2023-05-14T06:50:20;11.00;99.90
31799;DHT22;18374;51.136;3.502;2023-05-14T06:52:48;11.10;99.90
31799;DHT22;18374;51.136;3.502;2023-05-14T06:55:16;11.20;99.90
31799;DHT22;18374;51.136;3.502;2023-05-14T06:57:44;11.20;99.90
31799;DHT22;18374;51.136;3.502;2023-05-14T07:00:12;11.20;99.90
31799;DHT22;18374;51.136;3.502;2023-05-14T07:02:41;11.10;99.90
31799;DHT22;18374;51.136;3.502;2023-05-14T07:05:09;11.20;99.90
31799;DHT22;18374;51.136;3.502;2023-05-14T07:07:37;11.20;99.90
31799;DHT22;18374;51.136;3.502;2023-05-14T07:10:05;11.30;99.90
31799;DHT22;18374;51.136;3.502;2023-05-14T07:12:34;11.50;99.90
31799;DHT22;18374;51.136;3.502;2023-05-14T07:15:02;11.50;99.90
31799;DHT22;18374;51.136;3.502;2023-05-14T07:17:30;11.40;99.90
31799;DHT22;18374;51.136;3.502;2023-05-14T07:19:57;11.30;99.90
31799;DHT22;18374;51.136;3.502;2023-05-14T07:22:25;11.20;99.90
31799;DHT22;18374;51.136;3.502;2023-05-14T07:24:53;11.20;99.90
31799;DHT22;18374;51.136;3.502;2023-05-14T07:27:21;11.20;99.90
31799;DHT22;18374;51.136;3.502;2023-05-14T07:29:49;11.30;99.90
31799;DHT22;18374;51.136;3.502;2023-05-14T07:32:17;11.40;99.90
31799;DHT22;18374;51.136;3.502;2023-05-14T07:34:44;11.40;99.90
31799;DHT22;18374;51.136;3.502;2023-05-14T07:37:12;11.50;99.90
31799;DHT22;18374;51.136;3.502;2023-05-14T07:39:40;11.50;99.90
31799;DHT22;18374;51.136;3.502;2023-05-14T07:42:08;11.50;99.90
31799;DHT22;18374;51.136;3.502;2023-05-14T07:44:35;11.60;99.90
31799;DHT22;18374;51.136;3.502;2023-05-14T07:47:03;11.60;99.90
31799;DHT22;18374;51.136;3.502;2023-05-14T07:49:33;11.70;99.90
31799;DHT22;18374;51.136;3.502;2023-05-14T07:52:01;11.80;99.90
31799;DHT22;18374;51.136;3.502;2023-05-14T07:54:29;11.90;99.90
31799;DHT22;18374;51.136;3.502;2023-05-14T07:56:57;12.00;99.90
31799;DHT22;18374;51.136;3.502;2023-05-14T07:59:24;12.00;99.90
31799;DHT22;18374;51.136;3.502;2023-05-14T08:01:52;12.10;99.90
31799;DHT22;18374;51.136;3.502;2023-05-14T08:04:20;12.20;99.90
31799;DHT22;18374;51.136;3.502;2023-05-14T08:06:50;12.30;99.90
31799;DHT22;18374;51.136;3.502;2023-05-14T08:09:18;12.50;99.90
31799;DHT22;18374;51.136;3.502;2023-05-14T08:11:45;12.30;99.90
31799;DHT22;18374;51.136;3.502;2023-05-14T08:14:13;12.40;99.90
31799;DHT22;18374;51.136;3.502;2023-05-14T08:16:41;12.30;99.90
31799;DHT22;18374;51.136;3.502;2023-05-14T08:19:09;12.30;99.90
31799;DHT22;18374;51.136;3.502;2023-05-14T08:21:36;12.20;99.90
31799;DHT22;18374;51.136;3.502;2023-05-14T08:24:04;12.20;99.90
31799;DHT22;18374;51.136;3.502;2023-05-14T08:26:33;12.40;99.90
31799;DHT22;18374;51.136;3.502;2023-05-14T08:29:00;12.70;99.90
31799;DHT22;18374;51.136;3.502;2023-05-14T08:31:28;12.90;99.90
31799;DHT22;18374;51.136;3.502;2023-05-14T08:33:56;12.90;99.90
31799;DHT22;18374;51.136;3.502;2023-05-14T08:36:24;12.70;99.90
31799;DHT22;18374;51.136;3.502;2023-05-14T08:38:52;12.70;99.90
31799;DHT22;18374;51.136;3.502;2023-05-14T08:41:19;12.90;99.90
31799;DHT22;18374;51.136;3.502;2023-05-14T08:46:32;12.90;99.90
31799;DHT22;18374;51.136;3.502;2023-05-14T08:51:59;13.10;99.90
31799;DHT22;18374;51.136;3.502;2023-05-14T08:54:26;13.00;99.90
31799;DHT22;18374;51.136;3.502;2023-05-14T08:56:56;13.10;99.90
31799;DHT22;18374;51.136;3.502;2023-05-14T08:59:24;13.10;99.90
31799;DHT22;18374;51.136;3.502;2023-05-14T09:01:53;13.60;99.90
31799;DHT22;18374;51.136;3.502;2023-05-14T09:04:23;14.10;99.90
31799;DHT22;18374;51.136;3.502;2023-05-14T09:06:52;14.20;99.90
31799;DHT22;18374;51.136;3.502;2023-05-14T09:09:21;14.00;99.90
31799;DHT22;18374;51.136;3.502;2023-05-14T09:11:50;14.10;99.90
31799;DHT22;18374;51.136;3.502;2023-05-14T09:14:21;14.20;99.90
31799;DHT22;18374;51.136;3.502;2023-05-14T09:16:49;14.20;99.90
31799;DHT22;18374;51.136;3.502;2023-05-14T09:19:18;14.20;99.90
31799;DHT22;18374;51.136;3.502;2023-05-14T09:21:48;14.20;99.90
31799;DHT22;18374;51.136;3.502;2023-05-14T09:24:25;14.30;99.90
31799;DHT22;18374;51.136;3.502;2023-05-14T09:26:56;14.50;99.90
31799;DHT22;18374;51.136;3.502;2023-05-14T09:29:26;14.70;99.90
31799;DHT22;18374;51.136;3.502;2023-05-14T09:31:56;15.00;99.90
31799;DHT22;18374;51.136;3.502;2023-05-14T09:34:25;15.00;99.90
31799;DHT22;18374;51.136;3.502;2023-05-14T09:37:05;14.80;99.90
31799;DHT22;18374;51.136;3.502;2023-05-14T09:39:36;14.80;99.90
31799;DHT22;18374;51.136;3.502;2023-05-14T09:42:04;14.80;99.90
31799;DHT22;18374;51.136;3.502;2023-05-14T09:44:32;14.80;99.90
31799;DHT22;18374;51.136;3.502;2023-05-14T09:47:02;14.80;99.90
31799;DHT22;18374;51.136;3.502;2023-05-14T09:49:30;14.80;99.90
31799;DHT22;18374;51.136;3.502;2023-05-14T09:52:00;14.70;99.90
31799;DHT22;18374;51.136;3.502;2023-05-14T09:54:31;14.70;99.90
31799;DHT22;18374;51.136;3.502;2023-05-14T09:56:59;15.00;99.90
31799;DHT22;18374;51.136;3.502;2023-05-14T09:59:27;15.20;99.90
31799;DHT22;18374;51.136;3.502;2023-05-14T10:01:56;15.50;99.90
31799;DHT22;18374;51.136;3.502;2023-05-14T10:04:24;15.70;99.90
31799;DHT22;18374;51.136;3.502;2023-05-14T10:06:52;15.90;99.90
31799;DHT22;18374;51.136;3.502;2023-05-14T10:09:21;16.00;99.90
31799;DHT22;18374;51.136;3.502;2023-05-14T10:11:57;16.10;99.90
31799;DHT22;18374;51.136;3.502;2023-05-14T10:14:31;16.40;99.90
31799;DHT22;18374;51.136;3.502;2023-05-14T10:17:01;16.70;99.90
31799;DHT22;18374;51.136;3.502;2023-05-14T10:19:32;16.80;99.90
31799;DHT22;18374;51.136;3.502;2023-05-14T10:22:06;16.80;99.90
31799;DHT22;18374;51.136;3.502;2023-05-14T10:24:35;16.40;99.90
31799;DHT22;18374;51.136;3.502;2023-05-14T10:27:05;16.30;99.90
31799;DHT22;18374;51.136;3.502;2023-05-14T10:29:34;16.00;99.90
31799;DHT22;18374;51.136;3.502;2023-05-14T10:32:07;16.20;99.90
31799;DHT22;18374;51.136;3.502;2023-05-14T10:34:38;16.70;99.90
31799;DHT22;18374;51.136;3.502;2023-05-14T10:37:16;16.80;99.90
31799;DHT22;18374;51.136;3.502;2023-05-14T10:39:49;16.50;99.90
31799;DHT22;18374;51.136;3.502;2023-05-14T10:42:22;16.70;99.90
31799;DHT22;18374;51.136;3.502;2023-05-14T10:45:04;16.90;99.90
31799;DHT22;18374;51.136;3.502;2023-05-14T10:47:37;16.80;99.90
31799;DHT22;18374;51.136;3.502;2023-05-14T10:50:09;16.70;99.90
31799;DHT22;18374;51.136;3.502;2023-05-14T10:52:41;16.90;99.90
31799;DHT22;18374;51.136;3.502;2023-05-14T10:55:14;17.00;99.90
31799;DHT22;18374;51.136;3.502;2023-05-14T10:57:45;17.20;99.90
31799;DHT22;18374;51.136;3.502;2023-05-14T11:00:13;17.20;99.90
31799;DHT22;18374;51.136;3.502;2023-05-14T11:02:43;17.10;99.90
31799;DHT22;18374;51.136;3.502;2023-05-14T11:05:15;17.50;99.90
31799;DHT22;18374;51.136;3.502;2023-05-14T11:07:47;17.80;99.90
31799;DHT22;18374;51.136;3.502;2023-05-14T11:10:17;17.80;99.90
31799;DHT22;18374;51.136;3.502;2023-05-14T11:12:48;17.80;99.90
31799;DHT22;18374;51.136;3.502;2023-05-14T11:15:19;17.80;99.90
31799;DHT22;18374;51.136;3.502;2023-05-14T11:17:49;18.00;99.90
31799;DHT22;18374;51.136;3.502;2023-05-14T11:20:18;18.00;99.90
31799;DHT22;18374;51.136;3.502;2023-05-14T11:22:47;17.80;99.90
31799;DHT22;18374;51.136;3.502;2023-05-14T11:25:15;17.70;99.90
31799;DHT22;18374;51.136;3.502;2023-05-14T11:27:45;17.60;99.90
31799;DHT22;18374;51.136;3.502;2023-05-14T11:30:18;17.50;99.90
31799;DHT22;18374;51.136;3.502;2023-05-14T11:32:47;17.60;99.90
31799;DHT22;18374;51.136;3.502;2023-05-14T11:35:17;17.80;99.90
31799;DHT22;18374;51.136;3.502;2023-05-14T11:37:51;17.90;99.90
31799;DHT22;18374;51.136;3.502;2023-05-14T11:40:19;18.20;99.90
31799;DHT22;18374;51.136;3.502;2023-05-14T11:42:50;18.20;99.90
31799;DHT22;18374;51.136;3.502;2023-05-14T11:45:25;18.00;99.90
31799;DHT22;18374;51.136;3.502;2023-05-14T11:47:54;18.10;99.90
31799;DHT22;18374;51.136;3.502;2023-05-14T11:50:22;18.00;99.90
31799;DHT22;18374;51.136;3.502;2023-05-14T11:52:54;18.10;99.90
31799;DHT22;18374;51.136;3.502;2023-05-14T11:55:23;18.20;99.90
31799;DHT22;18374;51.136;3.502;2023-05-14T11:57:51;17.90;99.90
31799;DHT22;18374;51.136;3.502;2023-05-14T12:00:18;17.90;99.90
31799;DHT22;18374;51.136;3.502;2023-05-14T12:02:48;18.10;99.90
31799;DHT22;18374;51.136;3.502;2023-05-14T12:05:18;18.50;99.90
31799;DHT22;18374;51.136;3.502;2023-05-14T12:07:46;18.70;99.90
31799;DHT22;18374;51.136;3.502;2023-05-14T12:10:14;18.70;99.90
31799;DHT22;18374;51.136;3.502;2023-05-14T12:12:44;18.50;99.90
31799;DHT22;18374;51.136;3.502;2023-05-14T12:15:15;18.30;99.90
31799;DHT22;18374;51.136;3.502;2023-05-14T12:17:49;18.40;99.90
31799;DHT22;18374;51.136;3.502;2023-05-14T12:20:18;18.40;99.90
31799;DHT22;18374;51.136;3.502;2023-05-14T12:22:46;18.50;99.90
31799;DHT22;18374;51.136;3.502;2023-05-14T12:25:14;18.50;99.90
31799;DHT22;18374;51.136;3.502;2023-05-14T12:27:43;18.70;99.90
31799;DHT22;18374;51.136;3.502;2023-05-14T12:30:12;18.90;99.90
31799;DHT22;18374;51.136;3.502;2023-05-14T12:32:44;19.30;99.90
31799;DHT22;18374;51.136;3.502;2023-05-14T12:35:12;19.40;99.90
31799;DHT22;18374;51.136;3.502;2023-05-14T12:37:39;19.40;99.90
31799;DHT22;18374;51.136;3.502;2023-05-14T12:40:09;19.40;99.90
31799;DHT22;18374;51.136;3.502;2023-05-14T12:42:37;19.50;99.90
31799;DHT22;18374;51.136;3.502;2023-05-14T12:45:05;19.70;99.90
31799;DHT22;18374;51.136;3.502;2023-05-14T12:47:34;19.20;99.90
31799;DHT22;18374;51.136;3.502;2023-05-14T12:50:04;18.90;99.90
31799;DHT22;18374;51.136;3.502;2023-05-14T12:52:32;19.20;99.90
31799;DHT22;18374;51.136;3.502;2023-05-14T12:55:07;19.20;99.90
31799;DHT22;18374;51.136;3.502;2023-05-14T12:57:36;19.20;99.90
31799;DHT22;18374;51.136;3.502;2023-05-14T13:00:07;19.40;99.90
31799;DHT22;18374;51.136;3.502;2023-05-14T13:02:40;19.70;99.90
31799;DHT22;18374;51.136;3.502;2023-05-14T13:05:11;20.00;99.90
31799;DHT22;18374;51.136;3.502;2023-05-14T13:07:39;20.30;99.90
31799;DHT22;18374;51.136;3.502;2023-05-14T13:10:07;20.30;99.90
31799;DHT22;18374;51.136;3.502;2023-05-14T13:12:36;20.00;99.90
31799;DHT22;18374;51.136;3.502;2023-05-14T13:15:04;19.60;99.90
31799;DHT22;18374;51.136;3.502;2023-05-14T13:17:32;19.00;99.90
31799;DHT22;18374;51.136;3.502;2023-05-14T13:20:00;18.80;99.90
31799;DHT22;18374;51.136;3.502;2023-05-14T13:22:28;18.60;99.90
31799;DHT22;18374;51.136;3.502;2023-05-14T13:24:56;18.30;99.90
31799;DHT22;18374;51.136;3.502;2023-05-14T13:27:24;18.00;99.90
31799;DHT22;18374;51.136;3.502;2023-05-14T13:29:52;17.70;99.90
31799;DHT22;18374;51.136;3.502;2023-05-14T13:32:19;17.80;99.90
31799;DHT22;18374;51.136;3.502;2023-05-14T13:34:47;18.10;99.90
31799;DHT22;18374;51.136;3.502;2023-05-14T13:37:15;18.50;99.90
31799;DHT22;18374;51.136;3.502;2023-05-14T13:39:43;18.70;99.90
31799;DHT22;18374;51.136;3.502;2023-05-14T13:42:10;18.60;99.90
31799;DHT22;18374;51.136;3.502;2023-05-14T13:44:38;18.30;99.90
31799;DHT22;18374;51.136;3.502;2023-05-14T13:47:06;18.20;99.90
31799;DHT22;18374;51.136;3.502;2023-05-14T13:49:34;18.50;99.90
31799;DHT22;18374;51.136;3.502;2023-05-14T13:52:02;18.20;99.90
31799;DHT22;18374;51.136;3.502;2023-05-14T13:54:30;17.90;99.90
31799;DHT22;18374;51.136;3.502;2023-05-14T13:56:57;18.00;99.90
31799;DHT22;18374;51.136;3.502;2023-05-14T13:59:25;18.20;99.90
31799;DHT22;18374;51.136;3.502;2023-05-14T14:01:54;17.90;99.90
31799;DHT22;18374;51.136;3.502;2023-05-14T14:04:22;17.70;99.90
31799;DHT22;18374;51.136;3.502;2023-05-14T14:06:51;17.60;99.90
31799;DHT22;18374;51.136;3.502;2023-05-14T14:09:20;17.50;99.90
31799;DHT22;18374;51.136;3.502;2023-05-14T14:11:48;17.40;99.90
31799;DHT22;18374;51.136;3.502;2023-05-14T14:14:16;17.40;99.90
31799;DHT22;18374;51.136;3.502;2023-05-14T14:16:44;17.30;99.90
31799;DHT22;18374;51.136;3.502;2023-05-14T14:19:12;17.40;99.90
31799;DHT22;18374;51.136;3.502;2023-05-14T14:21:43;17.50;99.90
31799;DHT22;18374;51.136;3.502;2023-05-14T14:24:11;17.70;99.90
31799;DHT22;18374;51.136;3.502;2023-05-14T14:26:39;18.00;99.90
31799;DHT22;18374;51.136;3.502;2023-05-14T14:29:07;18.40;99.90
31799;DHT22;18374;51.136;3.502;2023-05-14T14:31:35;18.80;99.90
31799;DHT22;18374;51.136;3.502;2023-05-14T14:34:03;18.80;99.90
31799;DHT22;18374;51.136;3.502;2023-05-14T14:36:30;18.50;99.90
31799;DHT22;18374;51.136;3.502;2023-05-14T14:38:58;18.90;99.90
31799;DHT22;18374;51.136;3.502;2023-05-14T14:41:26;18.40;99.90
31799;DHT22;18374;51.136;3.502;2023-05-14T14:43:54;18.00;99.90
31799;DHT22;18374;51.136;3.502;2023-05-14T14:46:21;17.90;99.90
31799;DHT22;18374;51.136;3.502;2023-05-14T14:48:49;17.70;99.90
31799;DHT22;18374;51.136;3.502;2023-05-14T14:51:17;17.70;99.90
31799;DHT22;18374;51.136;3.502;2023-05-14T14:53:45;17.70;99.90
31799;DHT22;18374;51.136;3.502;2023-05-14T14:56:12;17.90;99.90
31799;DHT22;18374;51.136;3.502;2023-05-14T14:58:40;17.90;99.90
31799;DHT22;18374;51.136;3.502;2023-05-14T15:01:08;17.80;99.90
31799;DHT22;18374;51.136;3.502;2023-05-14T15:03:36;17.60;99.90
31799;DHT22;18374;51.136;3.502;2023-05-14T15:06:04;17.50;99.90
31799;DHT22;18374;51.136;3.502;2023-05-14T15:08:32;17.50;99.90
31799;DHT22;18374;51.136;3.502;2023-05-14T15:11:01;17.30;99.90
31799;DHT22;18374;51.136;3.502;2023-05-14T15:13:29;17.20;99.90
31799;DHT22;18374;51.136;3.502;2023-05-14T15:15:57;17.30;99.90
31799;DHT22;18374;51.136;3.502;2023-05-14T15:18:25;17.60;99.90
31799;DHT22;18374;51.136;3.502;2023-05-14T15:20:53;17.80;99.90
31799;DHT22;18374;51.136;3.502;2023-05-14T15:23:22;17.90;99.90
31799;DHT22;18374;51.136;3.502;2023-05-14T15:25:49;17.80;99.90
31799;DHT22;18374;51.136;3.502;2023-05-14T15:28:18;17.80;99.90
31799;DHT22;18374;51.136;3.502;2023-05-14T15:30:48;17.80;99.90
31799;DHT22;18374;51.136;3.502;2023-05-14T15:33:16;17.90;99.90
31799;DHT22;18374;51.136;3.502;2023-05-14T15:35:45;17.90;99.90
31799;DHT22;18374;51.136;3.502;2023-05-14T15:38:13;17.50;99.90
31799;DHT22;18374;51.136;3.502;2023-05-14T15:40:41;17.40;99.90
31799;DHT22;18374;51.136;3.502;2023-05-14T15:43:09;17.10;99.90
31799;DHT22;18374;51.136;3.502;2023-05-14T15:45:36;16.80;99.90